Time;durP1;ratioP1;P1;durP2;ratioP2;P2;SDS_P1;SDS_P2;PMS_P1;PMS_P2;Temp;Humidity;BMP_temperature;BMP_pressure;BME280_temperature;BME280_humidity;BME280_pressure;Samples;Min_cycle;Max_cycle;Signal;HPM_P1;HPM_P2
2021/12/21 00:00:44;;;;;;;18.38;10.63;;;-2.50;99.90;;;;;;4994161;28;20038;-92
2021/12/21 00:03:09;;;;;;;19.80;11.15;;;-2.50;99.90;;;;;;4988093;28;20041;-92
2021/12/21 00:05:36;;;;;;;24.13;12.10;;;-2.50;99.90;;;;;;4987203;28;20179;-93
2021/12/21 00:08:04;;;;;;;21.27;11.15;;;-2.50;99.90;;;;;;4998866;28;20049;-93
2021/12/21 00:10:32;;;;;;;20.35;10.80;;;-2.50;99.90;;;;;;5036261;28;20045;-92
2021/12/21 00:17:59;;;;;;;18.60;11.50;;;-2.50;99.90;;;;;;5019875;28;20044;-93
2021/12/21 00:20:50;;;;;;;25.30;11.15;;;-2.50;99.90;;;;;;5015506;28;20073;-92
2021/12/21 00:25:36;;;;;;;17.38;11.43;;;-2.60;99.90;;;;;;5016083;28;20041;-92
2021/12/21 00:28:03;;;;;;;17.45;10.82;;;-2.60;99.90;;;;;;5007938;28;20599;-92
2021/12/21 00:30:28;;;;;;;21.38;11.20;;;-2.60;99.90;;;;;;5018499;28;20090;-92
2021/12/21 00:32:54;;;;;;;21.00;11.90;;;-2.60;99.90;;;;;;5017873;28;20037;-93
2021/12/21 00:35:20;;;;;;;18.73;11.02;;;-2.60;99.90;;;;;;5013718;28;20081;-93
2021/12/21 00:37:47;;;;;;;20.02;10.98;;;-2.60;99.90;;;;;;4992456;28;20033;-93
2021/12/21 00:40:13;;;;;;;15.60;10.13;;;-2.60;99.90;;;;;;5012784;28;20402;-93
2021/12/21 00:42:39;;;;;;;17.25;10.35;;;-2.70;99.90;;;;;;5007527;28;20131;-92
2021/12/21 00:45:05;;;;;;;18.52;9.98;;;-2.60;99.90;;;;;;4985663;28;20057;-94
2021/12/21 00:47:34;;;;;;;17.92;10.23;;;-2.70;99.90;;;;;;4979673;28;20048;-93
2021/12/21 00:50:02;;;;;;;16.83;9.65;;;-2.70;99.90;;;;;;4991677;28;20049;-92
2021/12/21 00:52:28;;;;;;;19.25;9.15;;;-2.70;99.90;;;;;;4982340;28;20041;-93
2021/12/21 00:54:54;;;;;;;15.05;9.95;;;-2.70;99.90;;;;;;4995252;28;20498;-93
2021/12/21 00:57:19;;;;;;;18.25;9.93;;;-2.70;99.90;;;;;;5008519;28;20068;-93
2021/12/21 00:59:45;;;;;;;20.63;11.25;;;-2.00;99.90;;;;;;5011311;28;20502;-93
2021/12/21 01:02:11;;;;;;;19.67;10.25;;;-2.80;99.90;;;;;;5006148;28;20453;-93
2021/12/21 01:04:45;;;;;;;15.90;9.45;;;-2.80;99.90;;;;;;5009899;28;20500;-92
2021/12/21 01:20:27;;;;;;;16.33;9.15;;;-2.80;99.90;;;;;;5029671;28;20549;-94
2021/12/21 01:25:54;;;;;;;17.42;8.38;;;-2.80;99.90;;;;;;5026047;28;20074;-91
2021/12/21 01:30:59;;;;;;;16.55;9.93;;;-2.90;99.90;;;;;;5014518;28;20053;-93
2021/12/21 01:36:17;;;;;;;18.13;9.63;;;-2.90;99.90;;;;;;5003637;28;20080;-92
2021/12/21 01:42:04;;;;;;;16.08;8.73;;;-1.90;99.90;;;;;;5002325;28;20124;-93
2021/12/21 01:49:52;;;;;;;19.77;9.82;;;-3.00;99.90;;;;;;5029143;28;20049;-93
2021/12/21 01:52:21;;;;;;;17.13;9.10;;;-3.00;99.90;;;;;;5013722;28;20046;-92
2021/12/21 01:54:47;;;;;;;11.30;8.07;;;-1.90;99.90;;;;;;5008386;28;20069;-92
2021/12/21 01:57:15;;;;;;;13.85;8.15;;;-3.00;99.90;;;;;;4994323;28;20081;-92
2021/12/21 01:59:41;;;;;;;14.30;7.43;;;-3.00;99.90;;;;;;4996283;28;20033;-92
2021/12/21 02:02:09;;;;;;;12.00;7.43;;;-3.00;99.90;;;;;;5001879;28;20465;-93
2021/12/21 02:04:37;;;;;;;13.20;7.38;;;-3.00;99.90;;;;;;5009517;28;20049;-91
2021/12/21 02:07:04;;;;;;;13.18;7.40;;;-3.00;99.90;;;;;;5002451;28;20033;-92
2021/12/21 02:09:37;;;;;;;12.35;7.07;;;-3.00;99.90;;;;;;5012005;28;20486;-92
2021/12/21 02:12:05;;;;;;;15.05;7.72;;;-3.00;99.90;;;;;;5025354;28;20044;-91
2021/12/21 02:14:31;;;;;;;11.07;7.03;;;-3.10;99.90;;;;;;5014669;28;20168;-92
2021/12/21 02:18:00;;;;;;;13.15;7.00;;;-1.90;99.90;;;;;;4992779;28;20038;-91
2021/12/21 02:20:14;;;;;;;9.52;5.90;;;-3.10;99.90;;;;;;4989749;28;20076;-91
2021/12/21 02:22:47;;;;;;;12.10;6.07;;;-3.10;99.90;;;;;;5017144;28;20120;-91
2021/12/21 02:27:56;;;;;;;10.43;6.68;;;-3.10;99.90;;;;;;5027444;28;19972;-92
2021/12/21 02:30:23;;;;;;;14.48;6.85;;;-3.10;99.90;;;;;;5011114;28;20077;-91
2021/12/21 02:32:49;;;;;;;11.10;6.18;;;-3.10;99.90;;;;;;4984315;28;20034;-92
2021/12/21 02:35:15;;;;;;;9.55;5.43;;;-3.10;99.90;;;;;;4997657;28;20080;-93
2021/12/21 02:37:41;;;;;;;12.73;6.53;;;-3.10;99.90;;;;;;5009098;28;20154;-92
2021/12/21 02:40:08;;;;;;;11.82;6.22;;;-3.10;99.90;;;;;;5021902;28;20037;-91
2021/12/21 02:42:33;;;;;;;11.32;6.15;;;-3.10;99.90;;;;;;5008308;28;20030;-91
2021/12/21 02:44:59;;;;;;;10.52;5.57;;;-1.80;99.90;;;;;;4981992;28;20057;-91
2021/12/21 02:47:25;;;;;;;12.38;6.57;;;-3.20;99.90;;;;;;4990843;28;20498;-92
2021/12/21 02:49:51;;;;;;;9.20;6.40;;;-3.20;99.90;;;;;;5010138;28;20034;-92
2021/12/21 02:52:17;;;;;;;10.20;5.30;;;-3.20;99.90;;;;;;5001851;28;20045;-91
2021/12/21 02:54:42;;;;;;;9.40;5.00;;;-3.20;99.90;;;;;;4993513;28;20490;-92
2021/12/21 02:57:08;;;;;;;11.80;5.80;;;-3.20;99.90;;;;;;4999871;28;20036;-91
2021/12/21 02:59:34;;;;;;;10.95;5.82;;;-3.20;99.90;;;;;;4997654;28;20548;-92
2021/12/21 03:01:59;;;;;;;7.85;4.68;;;-3.20;99.90;;;;;;5001757;28;20109;-92
2021/12/21 03:04:25;;;;;;;7.78;5.10;;;-3.20;99.90;;;;;;4985350;28;20498;-92
2021/12/21 03:09:41;;;;;;;9.18;5.32;;;-3.30;99.90;;;;;;5001975;28;20049;-91
2021/12/21 03:12:34;;;;;;;10.25;6.10;;;-3.30;99.90;;;;;;5022523;28;20041;-91
2021/12/21 03:15:00;;;;;;;7.80;5.25;;;-3.30;99.90;;;;;;5008638;28;20038;-92
2021/12/21 03:17:26;;;;;;;10.00;5.38;;;-3.40;99.90;;;;;;4977749;28;20517;-92
2021/12/21 03:19:51;;;;;;;11.82;5.07;;;-2.00;99.90;;;;;;5006074;28;20037;-92
2021/12/21 03:22:17;;;;;;;11.07;5.38;;;-3.40;99.90;;;;;;4986744;28;20052;-91
2021/12/21 03:24:44;;;;;;;10.63;5.65;;;-3.40;99.90;;;;;;5014547;28;20548;-91
2021/12/21 03:27:10;;;;;;;7.25;5.07;;;-3.40;99.90;;;;;;5026511;28;20037;-90
2021/12/21 03:29:36;;;;;;;9.93;5.38;;;-3.40;99.90;;;;;;4984639;28;20044;-90
2021/12/21 03:32:02;;;;;;;11.82;5.70;;;-3.40;99.90;;;;;;4978108;28;20041;-91
2021/12/21 03:34:28;;;;;;;11.93;6.45;;;-3.40;99.90;;;;;;5005903;28;20517;-91
2021/12/21 03:36:55;;;;;;;9.30;5.55;;;-3.50;99.90;;;;;;4997053;28;20473;-91
2021/12/21 03:39:22;;;;;;;7.43;5.28;;;-3.50;99.90;;;;;;5016348;28;20048;-91
2021/12/21 03:41:56;;;;;;;11.23;6.18;;;-3.50;99.90;;;;;;5003462;28;20037;-91
2021/12/21 03:44:23;;;;;;;10.18;6.78;;;-3.50;99.90;;;;;;5012548;28;20046;-91
2021/12/21 03:46:52;;;;;;;9.25;6.20;;;-3.50;99.90;;;;;;5012574;28;20681;-90
2021/12/21 03:52:14;;;;;;;11.18;6.30;;;-3.50;99.90;;;;;;5025019;28;20456;-92
2021/12/21 03:54:44;;;;;;;10.80;7.25;;;-3.50;99.90;;;;;;5014866;28;20461;-91
2021/12/21 03:57:10;;;;;;;11.35;8.02;;;-2.30;99.90;;;;;;5013830;28;20410;-92
2021/12/21 03:59:36;;;;;;;11.73;7.78;;;-3.50;99.90;;;;;;5012028;28;20045;-91
2021/12/21 04:02:02;;;;;;;13.50;8.95;;;-2.70;99.90;;;;;;4999947;28;20561;-91
2021/12/21 04:04:28;;;;;;;20.15;9.85;;;-3.50;99.90;;;;;;5020744;28;20433;-91
2021/12/21 04:06:54;;;;;;;15.95;9.00;;;-3.50;99.90;;;;;;4985008;28;20034;-92
2021/12/21 04:09:20;;;;;;;17.73;9.55;;;-3.50;99.90;;;;;;5005558;28;20269;-91
2021/12/21 04:11:46;;;;;;;15.13;9.00;;;-3.50;99.90;;;;;;5001412;28;20034;-91
2021/12/21 04:14:12;;;;;;;15.23;8.77;;;-3.60;99.90;;;;;;5011453;28;20077;-91
2021/12/21 04:16:38;;;;;;;14.93;8.88;;;-3.60;99.90;;;;;;5030873;28;20120;-90
2021/12/21 04:19:04;;;;;;;16.27;9.80;;;-3.20;99.90;;;;;;5016837;28;20125;-91
2021/12/21 04:21:30;;;;;;;15.73;9.38;;;-3.60;99.90;;;;;;5024844;28;20092;-91
2021/12/21 04:23:56;;;;;;;18.45;9.23;;;-3.60;99.90;;;;;;4989839;28;20044;-90
2021/12/21 04:26:22;;;;;;;15.38;9.48;;;-3.70;99.90;;;;;;4978491;28;20041;-91
2021/12/21 04:28:48;;;;;;;16.33;10.70;;;-3.60;99.90;;;;;;4998663;28;20061;-91
2021/12/21 04:31:14;;;;;;;16.33;9.65;;;-3.60;99.90;;;;;;4994837;28;20053;-91
2021/12/21 04:33:45;;;;;;;15.18;9.75;;;-3.70;99.90;;;;;;5007904;28;20132;-91
2021/12/21 04:36:12;;;;;;;16.95;10.55;;;-3.70;99.90;;;;;;5014007;28;20073;-91
2021/12/21 04:38:42;;;;;;;18.05;11.32;;;-3.60;99.90;;;;;;5004468;28;20041;-91
2021/12/21 04:43:36;;;;;;;18.63;10.55;;;-3.70;99.90;;;;;;5019716;28;20107;-90
2021/12/21 04:46:03;;;;;;;15.88;10.38;;;-3.70;99.90;;;;;;5008707;28;20052;-91
2021/12/21 04:48:29;;;;;;;18.80;11.55;;;-3.70;99.90;;;;;;4998445;28;20033;-91
2021/12/21 04:50:54;;;;;;;17.55;11.05;;;-3.70;99.90;;;;;;5001051;28;20094;-91
2021/12/21 04:53:20;;;;;;;16.13;11.23;;;-3.70;99.90;;;;;;4991701;28;20413;-91
2021/12/21 04:55:46;;;;;;;20.05;11.48;;;-3.70;99.90;;;;;;5001448;28;20037;-91
2021/12/21 04:58:12;;;;;;;16.85;11.73;;;-3.80;99.90;;;;;;4992374;28;20064;-91
2021/12/21 05:00:39;;;;;;;20.40;12.45;;;-3.80;99.90;;;;;;4984527;28;20033;-91
2021/12/21 05:03:05;;;;;;;20.50;12.40;;;-3.80;99.90;;;;;;4994447;28;20094;-91
2021/12/21 05:05:32;;;;;;;19.15;12.77;;;-3.80;99.90;;;;;;4999633;28;20041;-92
2021/12/21 05:08:12;;;;;;;24.85;12.93;;;-3.80;99.90;;;;;;5006992;28;20036;-91
2021/12/21 05:10:49;;;;;;;26.52;13.63;;;-3.80;99.90;;;;;;5013883;28;20038;-92
2021/12/21 05:13:16;;;;;;;23.48;13.68;;;-3.80;99.90;;;;;;4997129;28;20132;-91
2021/12/21 05:15:42;;;;;;;21.90;13.27;;;-3.80;99.90;;;;;;5005085;28;20045;-91
2021/12/21 05:18:09;;;;;;;18.27;12.25;;;-3.80;99.90;;;;;;5014638;28;20060;-91
2021/12/21 05:20:36;;;;;;;16.23;12.20;;;-3.80;99.90;;;;;;5032985;28;20045;-91
2021/12/21 05:23:02;;;;;;;20.60;13.30;;;-2.70;99.90;;;;;;4985268;28;20033;-92
2021/12/21 05:25:27;;;;;;;20.23;13.68;;;-3.90;99.90;;;;;;4998203;28;20045;-92
2021/12/21 05:27:53;;;;;;;18.88;11.93;;;-3.90;99.90;;;;;;4986950;28;20401;-91
2021/12/21 05:30:19;;;;;;;22.05;13.38;;;-3.90;99.90;;;;;;4992693;28;20041;-91
2021/12/21 05:32:45;;;;;;;17.83;12.27;;;-3.90;99.90;;;;;;5019793;28;20048;-91
2021/12/21 05:35:11;;;;;;;22.85;12.95;;;-4.00;99.90;;;;;;4987575;28;20033;-91
2021/12/21 05:37:39;;;;;;;19.27;12.32;;;-4.00;99.90;;;;;;4974683;28;20168;-91
2021/12/21 05:40:15;;;;;;;17.88;12.13;;;-4.00;99.90;;;;;;4985137;28;20052;-91
2021/12/21 05:42:43;;;;;;;22.25;12.38;;;-4.00;99.90;;;;;;4970096;28;20152;-91
2021/12/21 05:45:11;;;;;;;23.20;12.93;;;-3.40;99.90;;;;;;4995342;28;20498;-92
2021/12/21 05:47:37;;;;;;;20.17;12.98;;;-4.00;99.90;;;;;;5029515;28;20080;-91
2021/12/21 05:50:05;;;;;;;24.75;13.25;;;-3.30;99.90;;;;;;5012556;28;20053;-90
2021/12/21 05:52:31;;;;;;;27.85;13.55;;;-4.10;99.90;;;;;;5011537;28;20033;-92
2021/12/21 05:54:57;;;;;;;22.52;12.65;;;-4.10;99.90;;;;;;5018871;23;20141;-95
2021/12/21 05:57:23;;;;;;;27.58;14.23;;;-4.10;99.90;;;;;;5003490;28;20480;-96
2021/12/21 05:59:48;;;;;;;28.23;14.07;;;-3.40;99.90;;;;;;5008912;28;20045;-96
2021/12/21 06:02:14;;;;;;;21.85;13.57;;;-2.70;99.90;;;;;;4981205;28;20108;-96
2021/12/21 06:04:40;;;;;;;23.95;13.45;;;-3.30;99.90;;;;;;5013151;28;20124;-96
2021/12/21 06:07:06;;;;;;;21.90;12.68;;;-2.80;99.90;;;;;;4979707;28;20042;-96
2021/12/21 06:09:32;;;;;;;23.38;14.32;;;-2.50;99.90;;;;;;4988367;28;20071;-96
2021/12/21 06:27:45;;;;;;;21.95;13.85;;;-4.20;99.90;;;;;;4996669;28;20176;-95
2021/12/21 06:30:11;;;;;;;22.45;13.70;;;-5.60;99.90;;;;;;4996542;28;20495;-95
2021/12/21 06:32:38;;;;;;;23.20;14.65;;;-4.30;99.90;;;;;;4991991;28;20057;-95
2021/12/21 06:35:04;;;;;;;26.17;15.38;;;-2.70;99.90;;;;;;4986547;28;20038;-95
2021/12/21 06:37:30;;;;;;;22.98;14.77;;;-4.30;99.90;;;;;;5016282;28;20045;-95
2021/12/21 06:39:56;;;;;;;24.52;14.65;;;-5.40;99.90;;;;;;4985266;28;20092;-95
2021/12/21 06:42:23;;;;;;;24.92;16.42;;;-4.30;99.90;;;;;;4997008;28;20038;-95
2021/12/21 06:44:54;;;;;;;25.05;16.45;;;-4.20;99.90;;;;;;4992661;28;20140;-95
2021/12/21 06:52:58;;;;;;;24.38;16.40;;;-4.30;99.90;;;;;;4992775;28;20119;-96
2021/12/21 06:55:24;;;;;;;24.23;16.50;;;-2.80;99.90;;;;;;4976011;28;20054;-95
2021/12/21 06:57:49;;;;;;;24.40;15.52;;;-3.30;99.90;;;;;;4973798;28;20131;-95
2021/12/21 07:00:17;;;;;;;25.60;15.45;;;-2.60;99.90;;;;;;4985297;28;20045;-95
2021/12/21 07:02:43;;;;;;;25.52;14.80;;;-4.20;99.90;;;;;;4985069;28;20064;-95
2021/12/21 07:05:10;;;;;;;20.27;14.80;;;-4.20;99.90;;;;;;4981418;28;20034;-94
2021/12/21 07:07:36;;;;;;;26.30;14.27;;;-4.20;99.90;;;;;;4983619;28;20121;-95
2021/12/21 07:10:07;;;;;;;22.67;14.63;;;-4.20;99.90;;;;;;4988750;28;20050;-95
2021/12/21 07:20:28;;;;;;;25.00;14.95;;;-2.90;99.90;;;;;;5018241;28;20039;-95
2021/12/21 07:22:55;;;;;;;26.23;16.23;;;-2.50;99.90;;;;;;4999067;28;20041;-94
2021/12/21 07:25:21;;;;;;;28.50;16.27;;;-2.60;99.90;;;;;;5008829;28;20511;-96
2021/12/21 07:27:47;;;;;;;26.13;15.55;;;-4.50;99.90;;;;;;4976264;28;20056;-95
2021/12/21 07:30:13;;;;;;;26.02;15.80;;;-2.50;99.90;;;;;;4993265;28;20124;-96
2021/12/21 07:32:39;;;;;;;25.75;14.75;;;-2.70;99.90;;;;;;4993623;28;20422;-96
2021/12/21 07:35:14;;;;;;;27.17;16.10;;;-4.60;99.90;;;;;;4999611;28;20422;-94
2021/12/21 07:37:40;;;;;;;21.17;14.70;;;-2.60;99.90;;;;;;4996013;28;20038;-95
2021/12/21 07:40:08;;;;;;;23.48;13.27;;;-2.70;99.90;;;;;;4998860;28;20062;-96
2021/12/21 07:42:34;;;;;;;24.05;14.15;;;-4.30;99.90;;;;;;4983650;28;20045;-96
2021/12/21 07:45:00;;;;;;;27.73;16.20;;;-2.80;99.90;;;;;;4993790;28;20077;-96
2021/12/21 07:47:26;;;;;;;26.80;15.95;;;-2.80;99.90;;;;;;4983075;28;20057;-96
2021/12/21 07:49:52;;;;;;;27.17;14.93;;;-2.50;99.90;;;;;;4991275;28;20496;-96
2021/12/21 07:52:18;;;;;;;21.92;14.15;;;-4.40;99.90;;;;;;4993669;28;20068;-96
2021/12/21 07:54:45;;;;;;;21.80;14.30;;;-3.00;99.90;;;;;;5005958;28;20499;-96
2021/12/21 07:57:11;;;;;;;21.50;14.48;;;-3.20;99.90;;;;;;4962227;28;20034;-96
2021/12/21 07:59:38;;;;;;;21.70;14.63;;;-3.00;99.90;;;;;;4963550;28;20029;-95
2021/12/21 08:02:05;;;;;;;23.30;14.70;;;-4.40;99.90;;;;;;4972970;28;20037;-96
2021/12/21 08:04:33;;;;;;;25.40;15.13;;;-4.40;99.90;;;;;;4944670;28;20038;-96
2021/12/21 08:09:43;;;;;;;25.52;16.27;;;-4.30;99.90;;;;;;5041766;28;20049;-95
2021/12/21 08:12:17;;;;;;;27.25;16.70;;;-3.00;99.90;;;;;;4987055;28;20121;-95
2021/12/21 08:14:44;;;;;;;22.10;14.70;;;-4.10;99.90;;;;;;5002239;28;20083;-95
2021/12/21 08:17:10;;;;;;;29.25;15.63;;;-3.80;99.90;;;;;;5002036;28;20048;-96
2021/12/21 08:19:35;;;;;;;31.13;14.88;;;-3.70;99.90;;;;;;4996116;28;20041;-95
2021/12/21 08:22:03;;;;;;;27.40;15.07;;;-3.70;99.90;;;;;;5003287;28;20032;-94
2021/12/21 08:24:29;;;;;;;26.77;14.88;;;-3.50;99.90;;;;;;4986719;28;20398;-94
2021/12/21 08:26:58;;;;;;;19.52;13.80;;;-2.20;99.90;;;;;;4975104;28;20481;-95
2021/12/21 08:29:25;;;;;;;22.05;14.93;;;-3.60;99.90;;;;;;5006658;28;20041;-96
2021/12/21 08:31:51;;;;;;;24.52;16.17;;;-3.60;99.90;;;;;;4977660;28;20204;-96
2021/12/21 08:34:16;;;;;;;28.02;17.42;;;-3.60;99.90;;;;;;4995506;28;20047;-93
2021/12/21 08:36:42;;;;;;;27.15;17.02;;;-3.60;99.90;;;;;;5017760;28;20041;-87
2021/12/21 08:39:08;;;;;;;21.42;15.80;;;-3.60;99.90;;;;;;4990984;28;20547;-89
2021/12/21 08:41:41;;;;;;;26.00;16.42;;;-3.50;99.90;;;;;;4998912;28;20042;-89
2021/12/21 08:44:09;;;;;;;25.02;16.52;;;-3.50;99.90;;;;;;5013004;28;20079;-92
2021/12/21 08:46:35;;;;;;;26.10;16.45;;;-3.40;99.90;;;;;;5002003;28;20045;-92
2021/12/21 08:49:00;;;;;;;27.40;16.73;;;-3.30;99.90;;;;;;4996064;28;20049;-92
2021/12/21 08:51:26;;;;;;;25.50;16.23;;;-3.30;99.90;;;;;;4973219;28;20041;-89
2021/12/21 08:53:52;;;;;;;25.92;15.60;;;-3.20;99.90;;;;;;4988523;28;20390;-90
2021/12/21 08:56:18;;;;;;;28.30;17.45;;;-3.10;99.90;;;;;;4980922;28;20090;-91
2021/12/21 08:58:43;;;;;;;27.63;19.45;;;-3.10;99.90;;;;;;5001057;28;20029;-91
2021/12/21 09:01:09;;;;;;;38.55;21.42;;;-3.10;99.90;;;;;;4969125;28;20116;-91
2021/12/21 09:03:35;;;;;;;37.65;20.88;;;-2.90;99.90;;;;;;4974232;28;20033;-93
2021/12/21 09:06:01;;;;;;;55.17;31.90;;;-1.40;99.90;;;;;;4983239;28;20041;-94
2021/12/21 09:08:27;;;;;;;31.13;19.73;;;-0.80;99.90;;;;;;5000769;28;21477;-93
2021/12/21 09:10:54;;;;;;;57.13;28.60;;;0.10;99.90;;;;;;4989867;28;20044;-95
2021/12/21 09:13:19;;;;;;;39.83;25.95;;;2.10;99.90;;;;;;4978068;28;20068;-94
2021/12/21 09:15:46;;;;;;;31.27;23.65;;;1.70;99.90;;;;;;4999802;28;20114;-94
2021/12/21 09:18:11;;;;;;;19.95;13.50;;;2.60;99.90;;;;;;4986293;28;20076;-95
2021/12/21 09:20:37;;;;;;;23.75;16.38;;;3.90;99.90;;;;;;5001202;28;20045;-96
2021/12/21 09:23:04;;;;;;;23.25;15.40;;;3.80;99.90;;;;;;4994902;28;20041;-94
2021/12/21 09:25:30;;;;;;;23.33;17.25;;;3.20;99.90;;;;;;5003635;28;20041;-94
2021/12/21 09:27:57;;;;;;;22.95;15.40;;;3.30;99.90;;;;;;5000981;28;20616;-93
2021/12/21 09:30:24;;;;;;;23.67;16.08;;;3.10;99.90;;;;;;5002173;28;20090;-93
2021/12/21 09:32:51;;;;;;;21.33;16.33;;;4.70;99.90;;;;;;5010302;28;20044;-96
2021/12/21 09:35:18;;;;;;;22.42;15.77;;;3.70;99.90;;;;;;5006494;28;20041;-96
2021/12/21 09:38:06;;;;;;;20.02;15.82;;;3.50;99.90;;;;;;5021169;28;20043;-94
2021/12/21 09:40:39;;;;;;;20.70;14.70;;;3.50;99.90;;;;;;5011556;28;20131;-95
2021/12/21 09:43:09;;;;;;;18.67;14.68;;;3.80;99.90;;;;;;5003563;28;20041;-96
2021/12/21 09:45:35;;;;;;;21.92;15.13;;;3.70;99.90;;;;;;5007971;28;20045;-94
2021/12/21 09:48:01;;;;;;;20.83;14.95;;;3.50;99.90;;;;;;5019920;28;20062;-94
2021/12/21 09:50:27;;;;;;;20.83;16.63;;;3.50;99.90;;;;;;4994444;28;20042;-92
2021/12/21 09:52:54;;;;;;;24.58;16.48;;;4.20;99.90;;;;;;4982532;28;20029;-93
2021/12/21 09:55:20;;;;;;;17.60;13.57;;;4.00;99.90;;;;;;4971060;28;20694;-93
2021/12/21 09:57:49;;;;;;;18.80;14.43;;;2.90;99.90;;;;;;4989529;28;20056;-94
2021/12/21 10:00:22;;;;;;;19.67;13.98;;;2.40;99.90;;;;;;4998404;28;20052;-91
2021/12/21 10:02:48;;;;;;;22.02;15.95;;;2.20;99.90;;;;;;4998399;28;20124;-92
2021/12/21 10:05:19;;;;;;;22.52;16.05;;;3.20;99.90;;;;;;4984825;28;20139;-89
2021/12/21 10:07:59;;;;;;;18.17;15.50;;;2.90;99.90;;;;;;4998322;28;20521;-91
2021/12/21 10:10:25;;;;;;;22.33;14.88;;;1.70;99.90;;;;;;4999012;28;20211;-96
2021/12/21 10:12:51;;;;;;;19.55;14.90;;;1.60;99.90;;;;;;4995288;28;20049;-91
2021/12/21 10:15:20;;;;;;;20.33;15.70;;;2.60;99.90;;;;;;4982338;28;20456;-92
2021/12/21 10:17:54;;;;;;;22.60;15.98;;;1.10;99.90;;;;;;4995312;28;20049;-92
2021/12/21 10:20:37;;;;;;;23.35;16.25;;;1.00;99.90;;;;;;4999453;28;20092;-94
2021/12/21 10:23:18;;;;;;;24.15;17.88;;;1.10;99.90;;;;;;4996295;28;20049;-93
2021/12/21 10:25:57;;;;;;;29.13;18.42;;;0.80;99.90;;;;;;4994593;28;20065;-89
2021/12/21 10:28:38;;;;;;;26.20;16.65;;;0.80;99.90;;;;;;4995151;28;20057;-90
2021/12/21 10:31:12;;;;;;;28.02;17.00;;;0.70;99.90;;;;;;5008791;28;20149;-90
2021/12/21 10:33:42;;;;;;;26.10;17.75;;;0.60;99.90;;;;;;5015002;28;20041;-89
2021/12/21 10:36:08;;;;;;;24.02;16.98;;;0.60;99.90;;;;;;4995940;28;20134;-88
2021/12/21 10:38:51;;;;;;;29.40;18.10;;;0.60;99.90;;;;;;5011108;28;20036;-91
2021/12/21 10:41:31;;;;;;;28.48;18.17;;;0.50;99.90;;;;;;4998727;28;20034;-87
2021/12/21 10:44:11;;;;;;;33.03;19.40;;;0.50;99.90;;;;;;4999516;28;20127;-87
2021/12/21 10:46:40;;;;;;;28.27;17.45;;;0.50;99.90;;;;;;5015204;28;20037;-89
2021/12/21 10:49:15;;;;;;;22.02;17.02;;;0.50;99.90;;;;;;5003151;28;20038;-92
2021/12/21 10:51:58;;;;;;;25.92;17.42;;;0.50;99.90;;;;;;5002430;28;20133;-92
2021/12/21 10:54:46;;;;;;;27.42;17.17;;;0.60;99.90;;;;;;5006549;28;20038;-92
2021/12/21 10:57:33;;;;;;;24.83;17.35;;;0.50;99.90;;;;;;5000569;28;20472;-89
2021/12/21 11:00:01;;;;;;;29.67;16.38;;;0.60;99.90;;;;;;5019714;28;20041;-90
2021/12/21 11:02:33;;;;;;;26.50;15.43;;;0.60;99.90;;;;;;5000608;28;20044;-92
2021/12/21 11:05:04;;;;;;;24.98;16.20;;;0.70;99.90;;;;;;4985072;28;20033;-91
2021/12/21 11:07:40;;;;;;;21.58;16.00;;;0.80;99.90;;;;;;5019320;28;20054;-91
2021/12/21 11:10:14;;;;;;;32.70;16.30;;;0.80;99.90;;;;;;5000824;28;20057;-91
2021/12/21 11:12:49;;;;;;;23.58;15.68;;;0.90;99.90;;;;;;4998086;28;20461;-91
2021/12/21 11:15:18;;;;;;;24.25;15.77;;;0.90;99.90;;;;;;5004489;28;20045;-92
2021/12/21 11:17:44;;;;;;;21.85;14.98;;;2.20;99.90;;;;;;5016041;28;20034;-91
2021/12/21 11:20:14;;;;;;;22.13;14.90;;;1.10;99.90;;;;;;4969118;28;20410;-92
2021/12/21 11:22:44;;;;;;;28.92;14.98;;;1.10;99.90;;;;;;5001017;28;20048;-92
2021/12/21 11:25:11;;;;;;;25.35;16.17;;;1.10;99.90;;;;;;4997618;28;20046;-91
2021/12/21 11:27:39;;;;;;;22.35;15.45;;;1.10;99.90;;;;;;5001753;28;20048;-91
2021/12/21 11:30:09;;;;;;;21.65;15.25;;;2.10;99.90;;;;;;5015089;28;20049;-90
2021/12/21 11:32:44;;;;;;;26.02;15.40;;;1.20;99.90;;;;;;4995003;28;20041;-92
2021/12/21 11:37:46;;;;;;;25.95;15.50;;;2.80;99.90;;;;;;5013909;28;20978;-92
2021/12/21 11:40:15;;;;;;;23.33;14.52;;;1.50;99.90;;;;;;5012962;28;20037;-92
2021/12/21 11:42:51;;;;;;;24.88;14.93;;;1.50;99.90;;;;;;4994644;28;20873;-92
2021/12/21 11:45:37;;;;;;;28.70;14.20;;;1.50;99.90;;;;;;5012614;28;20042;-91
2021/12/21 11:48:25;;;;;;;27.27;14.40;;;1.50;99.90;;;;;;5014588;28;20081;-92
2021/12/21 11:50:51;;;;;;;24.88;13.20;;;1.50;99.90;;;;;;5006530;28;20045;-92
2021/12/21 11:53:19;;;;;;;23.27;13.18;;;2.10;99.90;;;;;;4984077;28;20052;-92
2021/12/21 11:55:47;;;;;;;24.08;13.02;;;2.70;99.90;;;;;;4973146;28;20044;-92
2021/12/21 11:58:21;;;;;;;22.90;12.52;;;1.50;99.90;;;;;;4996085;28;20033;-92
2021/12/21 12:00:57;;;;;;;23.80;14.02;;;1.50;99.90;;;;;;4996224;28;21447;-91
2021/12/21 12:03:26;;;;;;;20.38;13.95;;;1.60;99.90;;;;;;4998273;28;20482;-92
2021/12/21 12:05:53;;;;;;;24.38;14.48;;;2.80;99.90;;;;;;4995929;28;20042;-92
2021/12/21 12:08:20;;;;;;;24.55;13.82;;;2.40;99.90;;;;;;4994647;28;20037;-91
2021/12/21 12:10:56;;;;;;;20.70;14.63;;;2.50;99.90;;;;;;5001242;28;20096;-94
2021/12/21 12:13:40;;;;;;;21.05;13.63;;;1.70;99.90;;;;;;5011286;28;20057;-95
2021/12/21 12:16:12;;;;;;;19.73;13.07;;;2.60;99.90;;;;;;5016258;28;20037;-95
2021/12/21 12:18:42;;;;;;;20.77;12.85;;;1.80;99.90;;;;;;4997395;28;20045;-94
2021/12/21 12:21:14;;;;;;;20.27;13.15;;;2.80;99.90;;;;;;5014677;28;20068;-91
2021/12/21 12:23:50;;;;;;;17.25;11.25;;;2.70;99.90;;;;;;5005776;28;20453;-87
2021/12/21 12:26:32;;;;;;;19.02;11.77;;;2.00;99.90;;;;;;5015650;28;20441;-87
2021/12/21 12:29:20;;;;;;;20.13;11.45;;;2.00;99.90;;;;;;5011071;28;20040;-87
2021/12/21 12:32:07;;;;;;;17.63;10.70;;;2.20;99.90;;;;;;5034513;28;20052;-87
2021/12/21 12:34:36;;;;;;;98.95;63.30;;;2.30;99.90;;;;;;4998063;28;20486;-87
2021/12/21 12:37:31;;;;;;;221.35;132.75;;;2.50;99.90;;;;;;5027869;28;20041;-87
2021/12/21 12:40:10;;;;;;;154.80;86.13;;;2.90;99.90;;;;;;5000720;28;20410;-87
2021/12/21 12:42:36;;;;;;;233.98;128.93;;;2.80;99.90;;;;;;5004201;28;20033;-87
2021/12/21 12:45:15;;;;;;;113.05;69.20;;;2.90;99.90;;;;;;5007105;28;20044;-87
2021/12/21 12:47:46;;;;;;;50.33;27.85;;;2.90;99.90;;;;;;5005287;28;20095;-95
2021/12/21 12:50:15;;;;;;;24.45;15.27;;;3.00;99.90;;;;;;5027752;28;20049;-96
2021/12/21 12:52:54;;;;;;;25.33;15.40;;;4.20;99.90;;;;;;5007782;28;20049;-96
2021/12/21 12:55:20;;;;;;;30.98;20.13;;;3.10;99.90;;;;;;5010370;28;20105;-96
2021/12/21 12:57:58;;;;;;;26.88;17.73;;;3.10;99.90;;;;;;5001239;28;20037;-90
2021/12/21 13:00:33;;;;;;;23.60;15.57;;;3.20;99.90;;;;;;4994537;28;20033;-89
2021/12/21 13:03:08;;;;;;;27.38;17.50;;;4.40;99.90;;;;;;4994810;28;20497;-88
2021/12/21 13:05:38;;;;;;;24.75;17.50;;;3.20;99.90;;;;;;4998656;28;20057;-89
2021/12/21 13:08:10;;;;;;;25.88;16.60;;;3.70;99.90;;;;;;5001140;28;20041;-89
2021/12/21 13:10:37;;;;;;;25.77;15.23;;;3.40;99.90;;;;;;4997344;28;20192;-89
2021/12/21 13:13:04;;;;;;;28.20;16.45;;;3.90;99.90;;;;;;5013822;28;20525;-89
2021/12/21 13:15:50;;;;;;;24.15;16.25;;;3.30;99.90;;;;;;4985265;28;20049;-88
2021/12/21 13:18:18;;;;;;;31.80;18.17;;;4.00;99.90;;;;;;4982233;28;20033;-89
2021/12/21 13:20:48;;;;;;;29.10;17.00;;;3.30;99.90;;;;;;4996700;28;20068;-89
2021/12/21 13:23:26;;;;;;;25.13;17.67;;;3.40;99.90;;;;;;4998151;28;20034;-87
2021/12/21 13:26:07;;;;;;;24.90;16.67;;;3.40;99.90;;;;;;5011256;28;20231;-88
2021/12/21 13:28:56;;;;;;;23.00;16.52;;;3.40;99.90;;;;;;4998377;28;20072;-88
2021/12/21 13:31:24;;;;;;;27.02;17.48;;;3.30;99.90;;;;;;4997584;28;20132;-89
2021/12/21 13:33:55;;;;;;;26.27;16.65;;;3.20;99.90;;;;;;4996327;28;20098;-90
2021/12/21 13:36:41;;;;;;;22.92;16.02;;;3.10;99.90;;;;;;4994800;28;20486;-90
2021/12/21 13:39:33;;;;;;;27.92;17.55;;;3.00;99.90;;;;;;4995526;28;20048;-90
2021/12/21 13:42:08;;;;;;;25.83;18.13;;;2.90;99.90;;;;;;4995095;28;20060;-89
2021/12/21 13:44:44;;;;;;;24.67;17.77;;;2.80;99.90;;;;;;5002391;28;20867;-90
2021/12/21 13:47:28;;;;;;;27.00;17.88;;;2.90;99.90;;;;;;4995683;28;20040;-90
2021/12/21 13:50:08;;;;;;;21.73;17.38;;;2.70;99.90;;;;;;4995260;28;20098;-91
2021/12/21 13:52:46;;;;;;;31.50;18.77;;;2.60;99.90;;;;;;5001236;28;20065;-91
2021/12/21 13:55:37;;;;;;;28.35;19.15;;;2.50;99.90;;;;;;4990127;28;20055;-91
2021/12/21 13:58:08;;;;;;;25.58;18.70;;;2.40;99.90;;;;;;4991425;28;20103;-90
2021/12/21 14:00:37;;;;;;;35.80;18.92;;;2.30;99.90;;;;;;4994347;28;20051;-91
2021/12/21 14:03:15;;;;;;;28.70;21.48;;;2.20;99.90;;;;;;4989662;28;20107;-90
2021/12/21 14:05:44;;;;;;;30.25;19.83;;;2.10;99.90;;;;;;4997021;28;20068;-91
2021/12/21 14:08:11;;;;;;;28.77;19.77;;;2.00;99.90;;;;;;4990360;28;20055;-91